sensor_id;sensor_type;location;lat;lon;timestamp;pressure;altitude;pressure_sealevel;temperature;humidity
2178;BME280;1095;50.992;6.798;2023-06-14T00:00:45;100483.81;;;18.83;60.58
2178;BME280;1095;50.992;6.798;2023-06-14T00:03:14;100488.72;;;18.80;60.80
2178;BME280;1095;50.992;6.798;2023-06-14T00:05:43;100484.47;;;18.72;60.78
2178;BME280;1095;50.992;6.798;2023-06-14T00:08:11;100478.56;;;18.70;61.05
2178;BME280;1095;50.992;6.798;2023-06-14T00:10:38;100478.59;;;18.64;61.51
2178;BME280;1095;50.992;6.798;2023-06-14T00:13:06;100478.59;;;18.57;61.79
2178;BME280;1095;50.992;6.798;2023-06-14T00:15:34;100486.56;;;18.57;61.92
2178;BME280;1095;50.992;6.798;2023-06-14T00:18:02;100480.66;;;18.55;61.92
2178;BME280;1095;50.992;6.798;2023-06-14T00:20:31;100493.50;;;18.51;62.66
2178;BME280;1095;50.992;6.798;2023-06-14T00:22:58;100496.78;;;18.47;62.91
2178;BME280;1095;50.992;6.798;2023-06-14T00:25:25;100496.25;;;18.38;63.01
2178;BME280;1095;50.992;6.798;2023-06-14T00:27:52;100497.69;;;18.34;63.01
2178;BME280;1095;50.992;6.798;2023-06-14T00:30:19;100501.59;;;18.25;62.73
2178;BME280;1095;50.992;6.798;2023-06-14T00:32:46;100508.13;;;18.16;62.78
2178;BME280;1095;50.992;6.798;2023-06-14T00:35:14;100499.19;;;18.10;62.65
2178;BME280;1095;50.992;6.798;2023-06-14T00:37:41;100495.09;;;18.08;62.73
2178;BME280;1095;50.992;6.798;2023-06-14T00:40:08;100505.28;;;18.11;62.98
2178;BME280;1095;50.992;6.798;2023-06-14T00:42:34;100499.19;;;18.10;62.63
2178;BME280;1095;50.992;6.798;2023-06-14T00:45:01;100501.41;;;18.07;62.45
2178;BME280;1095;50.992;6.798;2023-06-14T00:47:28;100512.22;;;18.05;63.15
2178;BME280;1095;50.992;6.798;2023-06-14T00:49:56;100504.06;;;18.07;62.75
2178;BME280;1095;50.992;6.798;2023-06-14T00:52:24;100508.16;;;17.96;62.97
2178;BME280;1095;50.992;6.798;2023-06-14T00:54:51;100510.25;;;17.87;63.06
2178;BME280;1095;50.992;6.798;2023-06-14T00:57:17;100516.75;;;17.85;63.61
2178;BME280;1095;50.992;6.798;2023-06-14T00:59:47;100520.03;;;17.80;63.79
2178;BME280;1095;50.992;6.798;2023-06-14T01:02:14;100514.72;;;17.74;63.73
2178;BME280;1095;50.992;6.798;2023-06-14T01:04:43;100523.66;;;17.59;64.53
2178;BME280;1095;50.992;6.798;2023-06-14T01:07:21;100522.44;;;17.55;65.09
2178;BME280;1095;50.992;6.798;2023-06-14T01:10:03;100529.16;;;17.51;64.95
2178;BME280;1095;50.992;6.798;2023-06-14T01:12:39;100532.66;;;17.45;65.09
2178;BME280;1095;50.992;6.798;2023-06-14T01:15:12;100529.19;;;17.38;64.92
2178;BME280;1095;50.992;6.798;2023-06-14T01:17:40;100526.13;;;17.41;65.07
2178;BME280;1095;50.992;6.798;2023-06-14T01:20:11;100529.59;;;17.42;65.22
2178;BME280;1095;50.992;6.798;2023-06-14T01:22:50;100520.44;;;17.38;65.16
2178;BME280;1095;50.992;6.798;2023-06-14T01:25:17;100527.34;;;17.39;65.42
2178;BME280;1095;50.992;6.798;2023-06-14T01:27:47;100528.97;;;17.40;65.26
2178;BME280;1095;50.992;6.798;2023-06-14T01:30:15;100521.66;;;17.42;65.20
2178;BME280;1095;50.992;6.798;2023-06-14T01:32:41;100524.50;;;17.40;64.81
2178;BME280;1095;50.992;6.798;2023-06-14T01:35:08;100519.63;;;17.37;65.16
2178;BME280;1095;50.992;6.798;2023-06-14T01:37:35;100527.53;;;17.31;66.70
2178;BME280;1095;50.992;6.798;2023-06-14T01:40:05;100520.00;;;17.21;66.93
2178;BME280;1095;50.992;6.798;2023-06-14T01:42:35;100537.47;;;17.15;67.42
2178;BME280;1095;50.992;6.798;2023-06-14T01:45:04;100546.81;;;17.05;68.14
2178;BME280;1095;50.992;6.798;2023-06-14T01:47:32;100534.81;;;17.02;68.24
2178;BME280;1095;50.992;6.798;2023-06-14T01:50:00;100532.16;;;16.96;68.12
2178;BME280;1095;50.992;6.798;2023-06-14T01:52:26;100537.25;;;16.90;68.42
2178;BME280;1095;50.992;6.798;2023-06-14T01:54:53;100538.88;;;16.91;68.17
2178;BME280;1095;50.992;6.798;2023-06-14T01:57:21;100545.56;;;16.87;68.12
2178;BME280;1095;50.992;6.798;2023-06-14T01:59:48;100536.19;;;16.78;68.28
2178;BME280;1095;50.992;6.798;2023-06-14T02:02:16;100539.22;;;16.75;68.52
2178;BME280;1095;50.992;6.798;2023-06-14T02:04:42;100545.69;;;16.66;68.84
2178;BME280;1095;50.992;6.798;2023-06-14T02:07:09;100540.53;;;16.58;69.52
2178;BME280;1095;50.992;6.798;2023-06-14T02:09:35;100542.56;;;16.56;69.54
2178;BME280;1095;50.992;6.798;2023-06-14T02:12:02;100550.09;;;16.59;69.35
2178;BME280;1095;50.992;6.798;2023-06-14T02:14:30;100547.03;;;16.55;69.92
2178;BME280;1095;50.992;6.798;2023-06-14T02:17:00;100548.84;;;16.55;69.42
2178;BME280;1095;50.992;6.798;2023-06-14T02:19:27;100543.75;;;16.47;69.45
2178;BME280;1095;50.992;6.798;2023-06-14T02:21:53;100551.25;;;16.43;69.55
2178;BME280;1095;50.992;6.798;2023-06-14T02:24:20;100550.44;;;16.43;70.16
2178;BME280;1095;50.992;6.798;2023-06-14T02:26:46;100549.59;;;16.36;69.57
2178;BME280;1095;50.992;6.798;2023-06-14T02:29:13;100547.97;;;16.35;69.59
2178;BME280;1095;50.992;6.798;2023-06-14T02:31:41;100552.00;;;16.31;69.49
2178;BME280;1095;50.992;6.798;2023-06-14T02:34:08;100553.06;;;16.36;69.29
2178;BME280;1095;50.992;6.798;2023-06-14T02:36:35;100550.19;;;16.31;69.40
2178;BME280;1095;50.992;6.798;2023-06-14T02:39:07;100549.94;;;16.26;69.50
2178;BME280;1095;50.992;6.798;2023-06-14T02:41:34;100559.09;;;16.30;69.24
2178;BME280;1095;50.992;6.798;2023-06-14T02:44:01;100551.97;;;16.24;69.33
2178;BME280;1095;50.992;6.798;2023-06-14T02:46:28;100559.88;;;16.24;69.93
2178;BME280;1095;50.992;6.798;2023-06-14T02:48:56;100564.59;;;16.29;70.59
2178;BME280;1095;50.992;6.798;2023-06-14T02:51:22;100563.53;;;16.23;71.25
2178;BME280;1095;50.992;6.798;2023-06-14T02:53:49;100574.47;;;16.20;71.69
2178;BME280;1095;50.992;6.798;2023-06-14T02:56:16;100566.28;;;16.08;72.39
2178;BME280;1095;50.992;6.798;2023-06-14T02:58:44;100575.38;;;15.99;72.50
2178;BME280;1095;50.992;6.798;2023-06-14T03:01:11;100579.22;;;15.97;72.88
2178;BME280;1095;50.992;6.798;2023-06-14T03:03:39;100577.53;;;15.89;72.94
2178;BME280;1095;50.992;6.798;2023-06-14T03:06:07;100570.75;;;15.80;72.74
2178;BME280;1095;50.992;6.798;2023-06-14T03:08:34;100580.06;;;15.76;72.62
2178;BME280;1095;50.992;6.798;2023-06-14T03:11:04;100578.28;;;15.83;72.35
2178;BME280;1095;50.992;6.798;2023-06-14T03:13:31;100585.81;;;15.86;72.52
2178;BME280;1095;50.992;6.798;2023-06-14T03:15:58;100582.44;;;15.92;72.65
2178;BME280;1095;50.992;6.798;2023-06-14T03:18:28;100576.09;;;15.86;72.83
2178;BME280;1095;50.992;6.798;2023-06-14T03:20:55;100580.78;;;15.91;73.26
2178;BME280;1095;50.992;6.798;2023-06-14T03:23:24;100599.03;;;15.86;73.94
2178;BME280;1095;50.992;6.798;2023-06-14T03:25:52;100592.75;;;15.87;73.71
2178;BME280;1095;50.992;6.798;2023-06-14T03:28:19;100597.00;;;15.88;73.99
2178;BME280;1095;50.992;6.798;2023-06-14T03:30:45;100599.66;;;15.88;74.30
2178;BME280;1095;50.992;6.798;2023-06-14T03:33:12;100601.03;;;15.84;74.40
2178;BME280;1095;50.992;6.798;2023-06-14T03:35:39;100604.25;;;15.79;74.88
2178;BME280;1095;50.992;6.798;2023-06-14T03:38:05;100605.44;;;15.77;74.90
2178;BME280;1095;50.992;6.798;2023-06-14T03:40:33;100607.81;;;15.72;74.71
2178;BME280;1095;50.992;6.798;2023-06-14T03:43:00;100605.19;;;15.72;74.91
2178;BME280;1095;50.992;6.798;2023-06-14T03:45:26;100606.13;;;15.64;74.51
2178;BME280;1095;50.992;6.798;2023-06-14T03:47:53;100606.94;;;15.65;74.31
2178;BME280;1095;50.992;6.798;2023-06-14T03:50:20;100621.31;;;15.62;74.73
2178;BME280;1095;50.992;6.798;2023-06-14T03:52:47;100622.84;;;15.71;74.60
2178;BME280;1095;50.992;6.798;2023-06-14T03:55:14;100618.00;;;15.75;74.45
2178;BME280;1095;50.992;6.798;2023-06-14T03:57:42;100625.16;;;15.81;74.00
2178;BME280;1095;50.992;6.798;2023-06-14T04:00:10;100622.56;;;15.87;73.88
2178;BME280;1095;50.992;6.798;2023-06-14T04:02:38;100629.88;;;16.13;73.53
2178;BME280;1095;50.992;6.798;2023-06-14T04:05:04;100628.91;;;16.83;72.39
2178;BME280;1095;50.992;6.798;2023-06-14T04:07:34;100620.41;;;17.82;69.17
2178;BME280;1095;50.992;6.798;2023-06-14T04:10:06;100632.28;;;18.77;66.22
2178;BME280;1095;50.992;6.798;2023-06-14T04:12:32;100627.81;;;19.53;64.41
2178;BME280;1095;50.992;6.798;2023-06-14T04:15:00;100632.13;;;20.04;62.29
2178;BME280;1095;50.992;6.798;2023-06-14T04:17:28;100637.41;;;20.29;60.97
2178;BME280;1095;50.992;6.798;2023-06-14T04:19:55;100639.66;;;20.50;60.52
2178;BME280;1095;50.992;6.798;2023-06-14T04:22:23;100650.84;;;20.77;59.90
2178;BME280;1095;50.992;6.798;2023-06-14T04:24:54;100655.53;;;21.12;59.66
2178;BME280;1095;50.992;6.798;2023-06-14T04:27:20;100649.28;;;21.36;58.56
2178;BME280;1095;50.992;6.798;2023-06-14T04:29:50;100655.41;;;21.37;58.70
2178;BME280;1095;50.992;6.798;2023-06-14T04:32:23;100665.94;;;21.13;59.12
2178;BME280;1095;50.992;6.798;2023-06-14T04:34:52;100661.47;;;20.77;59.94
2178;BME280;1095;50.992;6.798;2023-06-14T04:37:19;100664.69;;;20.43;61.17
2178;BME280;1095;50.992;6.798;2023-06-14T04:39:46;100664.59;;;20.06;62.41
2178;BME280;1095;50.992;6.798;2023-06-14T04:42:13;100661.81;;;19.95;62.49
2178;BME280;1095;50.992;6.798;2023-06-14T04:44:41;100655.03;;;20.24;62.76
2178;BME280;1095;50.992;6.798;2023-06-14T04:47:09;100660.47;;;21.08;59.95
2178;BME280;1095;50.992;6.798;2023-06-14T04:49:39;100645.78;;;21.24;57.66
2178;BME280;1095;50.992;6.798;2023-06-14T04:52:06;100665.97;;;20.59;59.23
2178;BME280;1095;50.992;6.798;2023-06-14T04:54:35;100670.94;;;20.05;59.90
2178;BME280;1095;50.992;6.798;2023-06-14T04:57:02;100671.88;;;20.61;60.09
2178;BME280;1095;50.992;6.798;2023-06-14T04:59:29;100680.72;;;21.09;59.12
2178;BME280;1095;50.992;6.798;2023-06-14T05:01:58;100678.72;;;21.05;58.62
2178;BME280;1095;50.992;6.798;2023-06-14T05:04:25;100667.72;;;21.01;58.74
2178;BME280;1095;50.992;6.798;2023-06-14T05:06:54;100674.16;;;20.94;58.39
2178;BME280;1095;50.992;6.798;2023-06-14T05:09:22;100676.69;;;20.70;57.65
2178;BME280;1095;50.992;6.798;2023-06-14T05:11:48;100680.00;;;21.02;57.20
2178;BME280;1095;50.992;6.798;2023-06-14T05:14:16;100694.22;;;21.44;56.83
2178;BME280;1095;50.992;6.798;2023-06-14T05:16:43;100697.63;;;21.63;56.05
2178;BME280;1095;50.992;6.798;2023-06-14T05:19:09;100680.72;;;21.58;54.81
2178;BME280;1095;50.992;6.798;2023-06-14T05:21:36;100679.22;;;22.03;54.59
2178;BME280;1095;50.992;6.798;2023-06-14T05:24:05;100686.44;;;21.73;55.05
2178;BME280;1095;50.992;6.798;2023-06-14T05:26:31;100671.66;;;22.70;52.44
2178;BME280;1095;50.992;6.798;2023-06-14T05:29:03;100669.38;;;22.39;52.24
2178;BME280;1095;50.992;6.798;2023-06-14T05:31:33;100679.06;;;23.77;50.37
2178;BME280;1095;50.992;6.798;2023-06-14T05:34:03;100672.75;;;24.72;48.54
2178;BME280;1095;50.992;6.798;2023-06-14T05:37:03;100679.09;;;24.88;48.05
2178;BME280;1095;50.992;6.798;2023-06-14T05:39:58;100669.78;;;24.90;47.77
2178;BME280;1095;50.992;6.798;2023-06-14T05:42:37;100670.25;;;25.31;47.11
2178;BME280;1095;50.992;6.798;2023-06-14T05:45:07;100681.09;;;24.37;48.16
2178;BME280;1095;50.992;6.798;2023-06-14T05:47:33;100702.78;;;25.98;47.18
2178;BME280;1095;50.992;6.798;2023-06-14T05:50:00;100689.13;;;26.94;45.13
2178;BME280;1095;50.992;6.798;2023-06-14T05:52:27;100696.47;;;27.09;44.00
2178;BME280;1095;50.992;6.798;2023-06-14T05:54:56;100699.78;;;26.27;44.99
2178;BME280;1095;50.992;6.798;2023-06-14T05:57:22;100708.31;;;27.18;44.78
2178;BME280;1095;50.992;6.798;2023-06-14T05:59:49;100701.31;;;26.55;44.69
2178;BME280;1095;50.992;6.798;2023-06-14T06:02:16;100704.75;;;26.50;43.72
2178;BME280;1095;50.992;6.798;2023-06-14T06:04:43;100703.94;;;25.75;43.99
2178;BME280;1095;50.992;6.798;2023-06-14T06:07:10;100707.69;;;26.49;42.72
2178;BME280;1095;50.992;6.798;2023-06-14T06:09:36;100701.22;;;26.07;42.17
2178;BME280;1095;50.992;6.798;2023-06-14T06:12:06;100697.38;;;25.93;41.83
2178;BME280;1095;50.992;6.798;2023-06-14T06:14:33;100697.22;;;25.24;43.09
2178;BME280;1095;50.992;6.798;2023-06-14T06:17:00;100704.38;;;25.67;42.38
2178;BME280;1095;50.992;6.798;2023-06-14T06:19:26;100704.00;;;25.32;42.56
2178;BME280;1095;50.992;6.798;2023-06-14T06:21:53;100710.56;;;25.19;43.64
2178;BME280;1095;50.992;6.798;2023-06-14T06:24:20;100699.75;;;25.63;42.42
2178;BME280;1095;50.992;6.798;2023-06-14T06:26:46;100693.38;;;25.64;42.37
2178;BME280;1095;50.992;6.798;2023-06-14T06:29:14;100701.41;;;25.15;43.11
2178;BME280;1095;50.992;6.798;2023-06-14T06:31:41;100698.63;;;25.59;42.27
2178;BME280;1095;50.992;6.798;2023-06-14T06:34:07;100709.84;;;25.51;42.91
2178;BME280;1095;50.992;6.798;2023-06-14T06:36:34;100700.34;;;24.94;43.32
2178;BME280;1095;50.992;6.798;2023-06-14T06:39:01;100710.88;;;26.88;41.02
2178;BME280;1095;50.992;6.798;2023-06-14T06:41:34;100706.13;;;27.05;40.45
2178;BME280;1095;50.992;6.798;2023-06-14T06:44:02;100695.56;;;25.99;41.69
2178;BME280;1095;50.992;6.798;2023-06-14T06:46:31;100721.66;;;26.13;42.26
2178;BME280;1095;50.992;6.798;2023-06-14T06:49:05;100712.56;;;26.52;41.35
2178;BME280;1095;50.992;6.798;2023-06-14T06:51:32;100714.34;;;25.72;42.17
2178;BME280;1095;50.992;6.798;2023-06-14T06:53:58;100728.16;;;26.23;42.23
2178;BME280;1095;50.992;6.798;2023-06-14T06:56:25;100719.22;;;26.39;41.58
2178;BME280;1095;50.992;6.798;2023-06-14T06:58:52;100716.47;;;26.81;40.67
2178;BME280;1095;50.992;6.798;2023-06-14T07:01:18;100714.84;;;27.53;39.93
2178;BME280;1095;50.992;6.798;2023-06-14T07:03:50;100719.75;;;27.61;39.68
2178;BME280;1095;50.992;6.798;2023-06-14T07:06:17;100718.22;;;27.07;40.93
2178;BME280;1095;50.992;6.798;2023-06-14T07:08:44;100711.03;;;27.23;40.31
2178;BME280;1095;50.992;6.798;2023-06-14T07:11:13;100715.31;;;27.19;40.43
2178;BME280;1095;50.992;6.798;2023-06-14T07:13:43;100714.53;;;26.66;40.65
2178;BME280;1095;50.992;6.798;2023-06-14T07:16:10;100721.22;;;27.16;41.08
2178;BME280;1095;50.992;6.798;2023-06-14T07:18:37;100719.75;;;28.06;39.53
2178;BME280;1095;50.992;6.798;2023-06-14T07:21:05;100717.78;;;27.46;40.29
2178;BME280;1095;50.992;6.798;2023-06-14T07:23:31;100726.09;;;27.24;40.58
2178;BME280;1095;50.992;6.798;2023-06-14T07:25:58;100716.16;;;27.30;39.99
2178;BME280;1095;50.992;6.798;2023-06-14T07:28:25;100719.94;;;27.44;39.40
2178;BME280;1095;50.992;6.798;2023-06-14T07:30:51;100714.59;;;26.76;40.40
2178;BME280;1095;50.992;6.798;2023-06-14T07:33:30;100716.94;;;27.25;39.75
2178;BME280;1095;50.992;6.798;2023-06-14T07:35:56;100712.75;;;27.60;39.50
2178;BME280;1095;50.992;6.798;2023-06-14T07:38:24;100712.97;;;26.75;40.75
2178;BME280;1095;50.992;6.798;2023-06-14T07:40:51;100723.47;;;26.35;41.33
2178;BME280;1095;50.992;6.798;2023-06-14T07:43:17;100715.34;;;27.24;40.03
2178;BME280;1095;50.992;6.798;2023-06-14T07:45:44;100706.63;;;26.97;40.53
2178;BME280;1095;50.992;6.798;2023-06-14T07:48:11;100720.22;;;27.37;40.23
2178;BME280;1095;50.992;6.798;2023-06-14T07:50:41;100715.66;;;28.65;39.09
2178;BME280;1095;50.992;6.798;2023-06-14T07:53:08;100707.91;;;27.97;38.68
2178;BME280;1095;50.992;6.798;2023-06-14T07:55:36;100705.59;;;27.08;39.61
2178;BME280;1095;50.992;6.798;2023-06-14T07:58:04;100717.09;;;27.81;39.78
2178;BME280;1095;50.992;6.798;2023-06-14T08:00:31;100718.09;;;28.51;39.29
2178;BME280;1095;50.992;6.798;2023-06-14T08:02:58;100713.75;;;28.70;38.63
2178;BME280;1095;50.992;6.798;2023-06-14T08:05:25;100701.22;;;28.30;36.73
2178;BME280;1095;50.992;6.798;2023-06-14T08:07:52;100697.13;;;27.57;38.77
2178;BME280;1095;50.992;6.798;2023-06-14T08:10:19;100707.03;;;27.36;39.91
2178;BME280;1095;50.992;6.798;2023-06-14T08:12:47;100693.00;;;26.56;38.12
2178;BME280;1095;50.992;6.798;2023-06-14T08:15:15;100692.63;;;26.37;38.88
2178;BME280;1095;50.992;6.798;2023-06-14T08:17:42;100706.31;;;28.27;36.80
2178;BME280;1095;50.992;6.798;2023-06-14T08:20:11;100690.00;;;27.05;36.91
2178;BME280;1095;50.992;6.798;2023-06-14T08:22:38;100701.06;;;27.19;36.45
2178;BME280;1095;50.992;6.798;2023-06-14T08:25:08;100703.78;;;27.29;37.28
2178;BME280;1095;50.992;6.798;2023-06-14T08:27:35;100702.69;;;26.62;36.75
2178;BME280;1095;50.992;6.798;2023-06-14T08:30:03;100703.69;;;26.51;36.88
2178;BME280;1095;50.992;6.798;2023-06-14T08:32:30;100703.69;;;26.46;36.84
2178;BME280;1095;50.992;6.798;2023-06-14T08:34:57;100704.94;;;27.89;35.17
2178;BME280;1095;50.992;6.798;2023-06-14T08:37:25;100700.13;;;27.70;35.60
2178;BME280;1095;50.992;6.798;2023-06-14T08:39:52;100711.69;;;28.17;35.11
2178;BME280;1095;50.992;6.798;2023-06-14T08:42:18;100710.50;;;28.79;34.05
2178;BME280;1095;50.992;6.798;2023-06-14T08:44:47;100701.09;;;27.24;34.47
2178;BME280;1095;50.992;6.798;2023-06-14T08:47:25;100703.78;;;27.24;35.56
2178;BME280;1095;50.992;6.798;2023-06-14T08:49:55;100690.81;;;27.05;35.38
2178;BME280;1095;50.992;6.798;2023-06-14T08:52:23;100699.22;;;27.29;35.06
2178;BME280;1095;50.992;6.798;2023-06-14T08:54:59;100693.81;;;25.83;36.53
2178;BME280;1095;50.992;6.798;2023-06-14T08:57:28;100696.91;;;26.33;36.02
2178;BME280;1095;50.992;6.798;2023-06-14T08:59:57;100702.47;;;27.41;34.86
2178;BME280;1095;50.992;6.798;2023-06-14T09:02:31;100697.94;;;26.74;35.01
2178;BME280;1095;50.992;6.798;2023-06-14T09:05:00;100692.97;;;27.08;35.26
2178;BME280;1095;50.992;6.798;2023-06-14T09:07:30;100700.19;;;26.51;36.08
2178;BME280;1095;50.992;6.798;2023-06-14T09:10:07;100691.06;;;26.99;35.62
2178;BME280;1095;50.992;6.798;2023-06-14T09:12:35;100697.22;;;26.42;36.33
2178;BME280;1095;50.992;6.798;2023-06-14T09:15:02;100697.09;;;27.41;35.83
2178;BME280;1095;50.992;6.798;2023-06-14T09:17:33;100688.25;;;25.89;36.75
2178;BME280;1095;50.992;6.798;2023-06-14T09:20:01;100698.59;;;26.50;36.36
2178;BME280;1095;50.992;6.798;2023-06-14T09:22:30;100682.22;;;26.46;36.67
2178;BME280;1095;50.992;6.798;2023-06-14T09:24:59;100694.34;;;27.11;36.43
2178;BME280;1095;50.992;6.798;2023-06-14T09:27:28;100695.13;;;27.12;36.60
2178;BME280;1095;50.992;6.798;2023-06-14T09:29:55;100697.53;;;26.13;37.42
2178;BME280;1095;50.992;6.798;2023-06-14T09:32:22;100698.06;;;27.00;37.06
2178;BME280;1095;50.992;6.798;2023-06-14T09:34:50;100698.25;;;27.71;36.79
2178;BME280;1095;50.992;6.798;2023-06-14T09:37:27;100698.13;;;27.20;36.76
2178;BME280;1095;50.992;6.798;2023-06-14T09:39:56;100703.72;;;27.03;36.89
2178;BME280;1095;50.992;6.798;2023-06-14T09:42:24;100700.13;;;26.35;37.01
2178;BME280;1095;50.992;6.798;2023-06-14T09:44:52;100701.75;;;26.36;37.91
2178;BME280;1095;50.992;6.798;2023-06-14T09:47:20;100699.91;;;26.42;37.64
2178;BME280;1095;50.992;6.798;2023-06-14T09:49:47;100696.47;;;27.04;36.88
2178;BME280;1095;50.992;6.798;2023-06-14T09:52:16;100704.69;;;27.95;36.93
2178;BME280;1095;50.992;6.798;2023-06-14T09:54:44;100699.03;;;26.84;37.71
2178;BME280;1095;50.992;6.798;2023-06-14T09:57:12;100702.56;;;27.72;36.86
2178;BME280;1095;50.992;6.798;2023-06-14T09:59:42;100702.16;;;27.23;37.76
2178;BME280;1095;50.992;6.798;2023-06-14T10:02:13;100706.75;;;25.91;39.06
2178;BME280;1095;50.992;6.798;2023-06-14T10:04:45;100712.78;;;25.76;39.33
2178;BME280;1095;50.992;6.798;2023-06-14T10:07:16;100701.16;;;25.65;40.07
2178;BME280;1095;50.992;6.798;2023-06-14T10:09:45;100698.84;;;26.11;40.20
2178;BME280;1095;50.992;6.798;2023-06-14T10:12:16;100702.63;;;25.51;39.99
2178;BME280;1095;50.992;6.798;2023-06-14T10:14:49;100702.09;;;25.27;41.30
2178;BME280;1095;50.992;6.798;2023-06-14T10:17:22;100687.75;;;24.95;40.75
2178;BME280;1095;50.992;6.798;2023-06-14T10:19:55;100696.66;;;24.57;42.47
2178;BME280;1095;50.992;6.798;2023-06-14T10:22:26;100695.91;;;25.05;41.94
2178;BME280;1095;50.992;6.798;2023-06-14T10:24:55;100704.81;;;25.10;41.70
2178;BME280;1095;50.992;6.798;2023-06-14T10:27:24;100697.34;;;25.34;40.90
2178;BME280;1095;50.992;6.798;2023-06-14T10:30:08;100705.78;;;24.99;41.17
2178;BME280;1095;50.992;6.798;2023-06-14T10:32:35;100685.38;;;24.76;41.46
2178;BME280;1095;50.992;6.798;2023-06-14T10:35:22;100699.97;;;25.07;40.93
2178;BME280;1095;50.992;6.798;2023-06-14T10:37:50;100689.69;;;25.21;40.95
2178;BME280;1095;50.992;6.798;2023-06-14T10:40:30;100694.59;;;25.56;40.99
2178;BME280;1095;50.992;6.798;2023-06-14T10:42:57;100698.56;;;25.00;41.91
2178;BME280;1095;50.992;6.798;2023-06-14T10:45:23;100699.06;;;25.45;41.64
2178;BME280;1095;50.992;6.798;2023-06-14T10:47:50;100697.69;;;25.43;41.32
2178;BME280;1095;50.992;6.798;2023-06-14T10:50:27;100697.16;;;25.68;41.75
2178;BME280;1095;50.992;6.798;2023-06-14T10:52:57;100689.16;;;25.46;41.87
2178;BME280;1095;50.992;6.798;2023-06-14T10:55:23;100706.75;;;25.37;42.19
2178;BME280;1095;50.992;6.798;2023-06-14T10:57:54;100701.31;;;25.32;42.52
2178;BME280;1095;50.992;6.798;2023-06-14T11:00:24;100707.56;;;25.91;42.32
2178;BME280;1095;50.992;6.798;2023-06-14T11:05:52;100702.00;;;26.35;42.28
2178;BME280;1095;50.992;6.798;2023-06-14T11:08:49;100712.28;;;26.16;42.87
2178;BME280;1095;50.992;6.798;2023-06-14T11:11:22;100703.50;;;25.62;43.53
2178;BME280;1095;50.992;6.798;2023-06-14T11:13:49;100695.00;;;26.02;43.36
2178;BME280;1095;50.992;6.798;2023-06-14T11:16:17;100677.34;;;25.20;44.14
2178;BME280;1095;50.992;6.798;2023-06-14T11:18:45;100694.47;;;25.68;43.82
2178;BME280;1095;50.992;6.798;2023-06-14T11:21:16;100695.78;;;25.92;44.03
2178;BME280;1095;50.992;6.798;2023-06-14T11:23:54;100691.78;;;25.68;44.34
2178;BME280;1095;50.992;6.798;2023-06-14T11:26:25;100679.84;;;25.81;44.11
2178;BME280;1095;50.992;6.798;2023-06-14T11:28:56;100689.72;;;24.99;44.99
2178;BME280;1095;50.992;6.798;2023-06-14T11:31:23;100694.59;;;25.29;45.07
2178;BME280;1095;50.992;6.798;2023-06-14T11:33:50;100689.22;;;25.78;44.47
2178;BME280;1095;50.992;6.798;2023-06-14T11:36:17;100687.38;;;25.57;43.91
2178;BME280;1095;50.992;6.798;2023-06-14T11:38:43;100683.56;;;26.11;44.28
2178;BME280;1095;50.992;6.798;2023-06-14T11:41:11;100679.13;;;25.90;44.61
2178;BME280;1095;50.992;6.798;2023-06-14T11:43:39;100680.56;;;25.71;44.92
2178;BME280;1095;50.992;6.798;2023-06-14T11:46:12;100668.47;;;25.41;43.68
2178;BME280;1095;50.992;6.798;2023-06-14T11:48:42;100664.56;;;25.81;42.81
2178;BME280;1095;50.992;6.798;2023-06-14T11:51:10;100672.75;;;25.96;43.88
2178;BME280;1095;50.992;6.798;2023-06-14T11:53:37;100668.41;;;25.90;43.87
2178;BME280;1095;50.992;6.798;2023-06-14T11:56:05;100667.50;;;26.17;43.29
2178;BME280;1095;50.992;6.798;2023-06-14T11:58:33;100651.25;;;25.91;42.58
2178;BME280;1095;50.992;6.798;2023-06-14T12:01:00;100654.13;;;25.79;41.20
2178;BME280;1095;50.992;6.798;2023-06-14T12:03:28;100649.50;;;26.12;40.80
2178;BME280;1095;50.992;6.798;2023-06-14T12:06:05;100651.88;;;26.40;40.10
2178;BME280;1095;50.992;6.798;2023-06-14T12:08:33;100661.34;;;26.16;40.47
2178;BME280;1095;50.992;6.798;2023-06-14T12:11:04;100675.38;;;26.28;39.86
2178;BME280;1095;50.992;6.798;2023-06-14T12:13:32;100668.25;;;26.44;40.17
2178;BME280;1095;50.992;6.798;2023-06-14T12:16:02;100658.97;;;26.67;40.29
2178;BME280;1095;50.992;6.798;2023-06-14T12:18:33;100658.84;;;27.04;40.28
2178;BME280;1095;50.992;6.798;2023-06-14T12:21:00;100657.31;;;27.23;39.55
2178;BME280;1095;50.992;6.798;2023-06-14T12:23:39;100651.78;;;26.77;40.26
2178;BME280;1095;50.992;6.798;2023-06-14T12:26:05;100658.78;;;26.89;40.52
2178;BME280;1095;50.992;6.798;2023-06-14T12:28:34;100661.84;;;26.55;40.88
2178;BME280;1095;50.992;6.798;2023-06-14T12:31:04;100651.59;;;26.37;40.30
2178;BME280;1095;50.992;6.798;2023-06-14T12:33:31;100647.75;;;26.80;40.03
2178;BME280;1095;50.992;6.798;2023-06-14T12:35:58;100642.19;;;27.02;39.53
2178;BME280;1095;50.992;6.798;2023-06-14T12:38:25;100665.31;;;27.03;40.83
2178;BME280;1095;50.992;6.798;2023-06-14T12:40:52;100642.31;;;26.65;41.04
2178;BME280;1095;50.992;6.798;2023-06-14T12:43:18;100660.16;;;26.91;40.96
2178;BME280;1095;50.992;6.798;2023-06-14T12:45:47;100649.16;;;25.98;40.58
2178;BME280;1095;50.992;6.798;2023-06-14T12:48:14;100658.75;;;25.89;41.45
2178;BME280;1095;50.992;6.798;2023-06-14T12:50:40;100673.91;;;26.10;41.13
2178;BME280;1095;50.992;6.798;2023-06-14T12:53:07;100661.69;;;26.30;40.34
2178;BME280;1095;50.992;6.798;2023-06-14T12:55:34;100645.78;;;25.76;40.84
2178;BME280;1095;50.992;6.798;2023-06-14T12:58:01;100656.78;;;26.17;39.79
2178;BME280;1095;50.992;6.798;2023-06-14T13:00:28;100635.09;;;25.81;39.57
2178;BME280;1095;50.992;6.798;2023-06-14T13:02:58;100646.38;;;25.83;39.64
2178;BME280;1095;50.992;6.798;2023-06-14T13:05:25;100629.56;;;25.93;39.46
2178;BME280;1095;50.992;6.798;2023-06-14T13:07:51;100645.97;;;26.06;39.81
2178;BME280;1095;50.992;6.798;2023-06-14T13:10:18;100630.13;;;26.37;39.44
2178;BME280;1095;50.992;6.798;2023-06-14T13:12:48;100653.22;;;26.48;39.43
2178;BME280;1095;50.992;6.798;2023-06-14T13:15:20;100649.16;;;26.98;38.32
2178;BME280;1095;50.992;6.798;2023-06-14T13:18:09;100659.41;;;27.06;38.79
2178;BME280;1095;50.992;6.798;2023-06-14T13:20:42;100630.25;;;26.67;38.82